Time;durP1;ratioP1;P1;durP2;ratioP2;P2;SDS_P1;SDS_P2;PMS_P1;PMS_P2;Temp;Humidity;BMP_temperature;BMP_pressure;BME280_temperature;BME280_humidity;BME280_pressure;Samples;Min_cycle;Max_cycle;Signal;HPM_P1;HPM_P2
2023/08/17 00:00:45;;;;;;;5.33;3.83;;;20.80;1.00;;;;;;4945161;29;20469;-92
2023/08/17 00:03:18;;;;;;;3.83;3.53;;;;;;;;;;4944300;29;20530;-91
2023/08/17 00:05:53;;;;;;;4.97;3.90;;;20.70;1.00;;;;;;4946565;29;20503;-91
2023/08/17 00:08:27;;;;;;;20.50;4.77;;;;;;;;;;4947263;29;20457;-91
2023/08/17 00:11:00;;;;;;;3.50;3.20;;;;;;;;;;4945139;29;20474;-91
2023/08/17 00:13:39;;;;;;;5.83;3.50;;;;;;;;;;4945220;29;20458;-91
2023/08/17 00:16:22;;;;;;;4.43;3.00;;;20.60;1.00;;;;;;4944293;29;20470;-91
2023/08/17 00:19:00;;;;;;;4.77;3.77;;;;;;;;;;4951958;29;20447;-92
2023/08/17 00:21:30;;;;;;;4.40;4.00;;;;;;;;;;4944269;29;20454;-91
2023/08/17 00:27:31;;;;;;;6.10;3.50;;;;;;;;;;4944803;29;20956;-92
2023/08/17 00:30:23;;;;;;;;;;;;;;;;;;;;;
2023/08/17 00:32:51;;;;;;;4.43;4.03;;;;;;;;;;4943333;29;20526;-90
2023/08/17 00:35:22;;;;;;;7.80;4.20;;;;;;;;;;4944058;29;20471;-91
2023/08/17 00:38:00;;;;;;;4.83;3.97;;;20.40;1.00;;;;;;4945283;29;20446;-91
2023/08/17 00:40:31;;;;;;;4.07;3.67;;;;;;;;;;4942724;29;20439;-90
2023/08/17 00:43:05;;;;;;;5.97;4.17;;;;;;;;;;4941584;29;20522;-91
2023/08/17 00:45:35;;;;;;;3.70;3.40;;;;;;;;;;4942632;29;20470;-90
2023/08/17 00:48:14;;;;;;;5.80;4.47;;;20.40;1.00;;;;;;4946325;29;20451;-91
2023/08/17 00:51:04;;;;;;;3.87;3.57;;;20.40;1.00;;;;;;4960549;29;20483;-90
2023/08/17 00:53:34;;;;;;;4.20;3.80;;;20.40;1.00;;;;;;4960074;29;20428;-91
2023/08/17 00:56:11;;;;;;;4.20;3.90;;;20.40;1.00;;;;;;4960742;29;20461;-90
2023/08/17 00:58:48;;;;;;;7.63;4.40;;;;;;;;;;4961051;29;20431;-90
2023/08/17 01:01:24;;;;;;;4.80;4.37;;;20.30;55.40;;;;;;4961260;29;20435;-91
2023/08/17 01:03:56;;;;;;;4.87;4.47;;;;;;;;;;4961136;29;20498;-89
2023/08/17 01:06:26;;;;;;;4.83;4.23;;;;;;;;;;4961246;29;20462;-90
2023/08/17 01:08:53;;;;;;;5.00;4.10;;;;;;;;;;4961332;29;20523;-89
2023/08/17 01:11:39;;;;;;;7.53;4.40;;;20.10;99.90;;;;;;4960927;29;20478;-89
2023/08/17 01:14:18;;;;;;;7.43;4.20;;;;;;;;;;4960999;29;20458;-89
2023/08/17 01:17:07;;;;;;;4.40;4.00;;;20.10;99.90;;;;;;4957923;29;20432;-90
2023/08/17 01:19:42;;;;;;;4.60;4.20;;;20.10;99.90;;;;;;4950586;29;20448;-90
2023/08/17 01:22:35;;;;;;;6.10;4.23;;;20.00;99.90;;;;;;4949021;29;20424;-90
2023/08/17 01:25:08;;;;;;;4.50;4.10;;;;;;;;;;4944360;29;20511;-90
2023/08/17 01:27:44;;;;;;;6.40;4.23;;;20.00;99.90;;;;;;4942221;29;20443;-90
2023/08/17 01:30:19;;;;;;;6.03;4.00;;;19.90;99.90;;;;;;4944902;29;20560;-90
2023/08/17 01:33:03;;;;;;;3.97;3.67;;;19.90;1.00;;;;;;4955384;29;20477;-90
2023/08/17 01:35:55;;;;;;;5.87;3.90;;;19.90;99.90;;;;;;4953278;29;20486;-89
2023/08/17 01:38:51;;;;;;;4.07;3.67;;;19.90;99.90;;;;;;4949886;29;20439;-90
2023/08/17 01:41:30;;;;;;;5.53;3.83;;;19.80;99.90;;;;;;4940904;29;20427;-90
2023/08/17 01:44:17;;;;;;;4.53;3.47;;;19.80;99.90;;;;;;4946098;29;20531;-90
2023/08/17 01:46:50;;;;;;;5.33;3.93;;;19.90;99.90;;;;;;4945498;29;20514;-89
2023/08/17 01:49:17;;;;;;;5.50;4.00;;;;;;;;;;4943176;29;20427;-89
2023/08/17 01:51:46;;;;;;;4.23;3.90;;;;;;;;;;4940287;29;20490;-89
2023/08/17 01:54:16;;;;;;;5.63;4.23;;;;;;;;;;4939429;29;20451;-89
2023/08/17 01:56:51;;;;;;;7.90;4.63;;;;;;;;;;4939701;29;20503;-90
2023/08/17 01:59:22;;;;;;;5.60;3.80;;;;;;;;;;4940881;29;20888;-89
2023/08/17 02:01:54;;;;;;;5.77;3.90;;;;;;;;;;4941065;29;20502;-89
2023/08/17 02:04:22;;;;;;;5.07;4.03;;;;;;;;;;4940232;29;20507;-89
2023/08/17 02:06:57;;;;;;;7.00;3.83;;;;;;;;;;4941103;29;20919;-89
2023/08/17 02:09:27;;;;;;;4.00;3.60;;;;;;;;;;4942996;29;20469;-88
2023/08/17 02:12:06;;;;;;;10.00;4.63;;;19.60;99.90;;;;;;4944344;29;20479;-89
2023/08/17 02:14:36;;;;;;;4.47;4.03;;;;;;;;;;4944269;29;20478;-89
2023/08/17 02:17:05;;;;;;;4.63;4.10;;;;;;;;;;4944021;29;20465;-89
2023/08/17 02:19:32;;;;;;;7.07;3.73;;;;;;;;;;4943004;29;20490;-90
2023/08/17 02:22:07;;;;;;;5.13;4.07;;;;;;;;;;4942970;29;20963;-89
2023/08/17 02:24:52;;;;;;;4.77;3.80;;;19.50;1.00;;;;;;4943916;29;20534;-91
2023/08/17 02:27:24;;;;;;;4.87;4.00;;;;;;;;;;4943378;29;20442;-89
2023/08/17 02:30:00;;;;;;;6.13;4.27;;;;;;;;;;4944546;29;20448;-89
2023/08/17 02:32:34;;;;;;;3.83;3.40;;;;;;;;;;4943685;29;20482;-89
2023/08/17 02:35:13;;;;;;;3.73;3.50;;;;;;;;;;4957517;29;20471;-88
2023/08/17 02:38:14;;;;;;;5.73;4.13;;;19.50;99.90;;;;;;4963573;29;20529;-89
2023/08/17 02:40:53;;;;;;;4.00;3.60;;;;;;;;;;4962061;29;20431;-90
2023/08/17 02:43:59;;;;;;;4.27;3.80;;;19.50;99.90;;;;;;4946287;29;20534;-89
2023/08/17 02:46:37;;;;;;;3.83;2.80;;;;;;;;;;4943194;29;20470;-89
2023/08/17 02:49:22;;;;;;;4.63;3.23;;;19.40;99.90;;;;;;4959999;29;20423;-90
2023/08/17 02:54:53;;;;;;;4.23;3.83;;;;;;;;;;4962356;29;20495;-88
2023/08/17 02:57:29;;;;;;;4.27;3.73;;;;;;;;;;4957798;29;20439;-90
2023/08/17 03:23:18;;;;;;;5.13;4.67;;;;;;;;;;4789383;29;20451;-90
2023/08/17 03:29:56;;;;;;;4.23;3.80;;;19.30;99.90;;;;;;4824862;29;20436;-89
2023/08/17 03:35:23;;;;;;;3.83;3.50;;;;;;;;;;4922736;29;20493;-89
2023/08/17 03:38:08;;;;;;;8.87;3.40;;;;;;;;;;4940130;29;20824;-89
2023/08/17 03:40:39;;;;;;;6.93;3.47;;;;;;;;;;4940383;29;20471;-89
2023/08/17 03:43:18;;;;;;;5.63;3.53;;;;;;;;;;4940031;29;20424;-89
2023/08/17 03:49:37;;;;;;;4.00;3.43;;;19.30;1.00;;;;;;4936953;29;20455;-90
2023/08/17 03:55:37;;;;;;;4.50;4.07;;;;;;;;;;4950684;29;20450;-89
2023/08/17 03:58:09;;;;;;;4.17;3.07;;;;;;;;;;4951402;29;20443;-90
2023/08/17 04:00:52;;;;;;;4.00;2.80;;;19.20;1.00;;;;;;4942376;29;20458;-89
2023/08/17 04:03:37;;;;;;;3.87;3.30;;;19.20;1.00;;;;;;4942562;29;21078;-89
2023/08/17 04:38:51;;;;;;;3.97;3.50;;;19.30;99.90;;;;;;4737888;30;20465;-89
2023/08/17 04:52:10;;;;;;;3.47;3.17;;;19.40;99.90;;;;;;4866770;29;20543;-90
2023/08/17 04:55:22;;;;;;;4.00;3.10;;;19.40;99.90;;;;;;4939668;29;20478;-90
2023/08/17 04:57:50;;;;;;;3.13;2.93;;;;;;;;;;5006955;23;20539;-91
2023/08/17 05:00:25;;;;;;;3.67;2.80;;;;;;;;;;4976411;29;20438;-91
2023/08/17 05:02:52;;;;;;;3.13;2.83;;;;;;;;;;4965198;29;20970;-91
2023/08/17 05:05:19;;;;;;;3.57;2.57;;;;;;;;;;4965054;29;20446;-91
2023/08/17 05:07:47;;;;;;;3.90;3.00;;;19.50;99.90;;;;;;4965500;28;20882;-90
2023/08/17 05:10:15;;;;;;;3.30;2.80;;;;;;;;;;4968086;29;20438;-90
2023/08/17 05:12:42;;;;;;;5.10;3.30;;;19.40;99.90;;;;;;4970129;28;20498;-90
2023/08/17 05:15:10;;;;;;;3.80;2.70;;;;;;;;;;4963175;29;20459;-91
2023/08/17 05:17:37;;;;;;;3.03;2.83;;;17.50;99.90;;;;;;4958877;28;20864;-89
2023/08/17 05:20:06;;;;;;;3.07;2.87;;;20.60;99.90;;;;;;4958579;29;20639;-89
2023/08/17 05:22:34;;;;;;;6.20;3.20;;;19.60;99.90;;;;;;4958649;29;20446;-89
2023/08/17 05:25:01;;;;;;;4.77;3.60;;;19.50;99.90;;;;;;4957279;29;20940;-89
2023/08/17 05:27:29;;;;;;;3.17;2.50;;;19.50;99.90;;;;;;4956877;28;20480;-89
2023/08/17 05:29:56;;;;;;;5.27;2.90;;;19.60;99.90;;;;;;4956509;29;20446;-89
2023/08/17 05:32:23;;;;;;;3.93;3.57;;;;;;;;;;4957547;29;21049;-89
2023/08/17 05:34:50;;;;;;;5.03;3.00;;;19.70;99.90;;;;;;4957114;29;20481;-88
2023/08/17 05:37:17;;;;;;;3.93;2.57;;;19.70;99.90;;;;;;4956376;28;20553;-88
2023/08/17 05:39:44;;;;;;;3.90;3.20;;;19.40;99.90;;;;;;4956950;29;21006;-88
2023/08/17 05:42:11;;;;;;;7.40;3.47;;;19.60;99.90;;;;;;4960443;28;20484;-88
2023/08/17 05:44:39;;;;;;;5.57;3.20;;;19.90;99.90;;;;;;4961773;29;20852;-87
2023/08/17 05:47:06;;;;;;;9.27;4.13;;;19.90;99.90;;;;;;4961637;28;20545;-88
2023/08/17 05:49:33;;;;;;;4.27;3.10;;;20.60;99.90;;;;;;4961197;29;20466;-87
2023/08/17 05:52:04;;;;;;;7.23;3.70;;;20.00;99.90;;;;;;4970450;28;20446;-88
2023/08/17 05:54:31;;;;;;;3.03;2.73;;;;;;;;;;4963218;29;20477;-88
2023/08/17 05:56:58;;;;;;;3.30;2.87;;;;;;;;;;4960948;28;20490;-88
2023/08/17 05:59:25;;;;;;;3.57;3.27;;;;;;;;;;4962880;29;20517;-87
2023/08/17 06:01:54;;;;;;;3.70;3.40;;;20.10;99.90;;;;;;4962006;29;20454;-88
2023/08/17 06:04:21;;;;;;;3.63;3.00;;;20.20;99.90;;;;;;4975251;29;20441;-88
2023/08/17 06:06:47;;;;;;;5.13;3.20;;;20.50;99.90;;;;;;4981654;28;20469;-88
2023/08/17 06:09:17;;;;;;;4.40;3.57;;;20.10;95.30;;;;;;4982634;28;20481;-88
2023/08/17 06:11:44;;;;;;;6.13;3.50;;;;;;;;;;4982506;28;20495;-87
2023/08/17 06:14:12;;;;;;;8.60;3.97;;;20.10;88.50;;;;;;4979304;28;20427;-87
2023/08/17 06:16:39;;;;;;;5.80;3.40;;;;;;;;;;4965639;28;20470;-87
2023/08/17 06:19:07;;;;;;;6.93;3.70;;;20.10;99.90;;;;;;4963002;29;20460;-88
2023/08/17 06:21:34;;;;;;;4.03;3.63;;;20.10;99.90;;;;;;4963524;29;20432;-87
2023/08/17 06:24:01;;;;;;;5.60;3.53;;;;;;;;;;4980827;29;20453;-88
2023/08/17 06:26:29;;;;;;;4.47;4.10;;;;;;;;;;4968560;28;20485;-88
2023/08/17 06:28:56;;;;;;;6.23;4.07;;;;;;;;;;4963283;29;20446;-88
2023/08/17 06:31:27;;;;;;;11.00;4.00;;;;;;;;;;4970704;29;20438;-88
2023/08/17 06:33:54;;;;;;;8.10;3.40;;;20.10;99.90;;;;;;4981752;28;20481;-88
2023/08/17 06:36:22;;;;;;;5.77;3.60;;;19.00;99.90;;;;;;4981501;28;20539;-88
2023/08/17 06:38:49;;;;;;;4.00;3.47;;;20.70;99.90;;;;;;4981889;29;20465;-88
2023/08/17 06:41:17;;;;;;;3.27;3.00;;;;;;;;;;4980822;28;20537;-88
2023/08/17 06:43:44;;;;;;;3.73;3.40;;;18.50;99.90;;;;;;4982022;28;20523;-88
2023/08/17 06:46:11;;;;;;;5.07;4.00;;;20.00;1.00;;;;;;4982545;28;20435;-88
2023/08/17 06:48:38;;;;;;;9.63;3.77;;;20.50;99.90;;;;;;4982916;28;20427;-88
2023/08/17 06:51:05;;;;;;;4.93;3.50;;;20.00;99.90;;;;;;4976967;28;20493;-88
2023/08/17 06:53:33;;;;;;;3.83;3.10;;;20.20;99.90;;;;;;4973306;28;20494;-88
2023/08/17 06:56:00;;;;;;;3.63;2.93;;;20.20;99.90;;;;;;4981322;28;20498;-88
2023/08/17 06:58:27;;;;;;;4.90;3.80;;;20.50;1.00;;;;;;4977197;29;20988;-87
2023/08/17 07:00:53;;;;;;;3.80;3.50;;;20.50;94.50;;;;;;4982459;28;20434;-88
2023/08/17 07:03:21;;;;;;;4.60;3.20;;;21.50;98.10;;;;;;4982614;28;20438;-89
2023/08/17 07:05:48;;;;;;;3.93;3.50;;;20.50;92.90;;;;;;4982092;28;20431;-88
2023/08/17 07:08:15;;;;;;;3.83;3.53;;;20.30;1.00;;;;;;4978797;28;20477;-89
2023/08/17 07:10:43;;;;;;;4.60;3.40;;;20.60;85.40;;;;;;4971035;28;20461;-89
2023/08/17 07:13:10;;;;;;;4.23;3.80;;;20.80;91.10;;;;;;4979580;28;20481;-88
2023/08/17 07:15:37;;;;;;;4.83;3.77;;;20.60;99.90;;;;;;4981425;28;20438;-87
2023/08/17 07:18:05;;;;;;;5.37;4.17;;;20.70;95.50;;;;;;4982207;28;20464;-87
2023/08/17 07:20:31;;;;;;;4.40;4.10;;;20.50;90.70;;;;;;4981759;29;20443;-87
2023/08/17 07:22:58;;;;;;;7.80;4.10;;;20.50;99.90;;;;;;4970900;29;20493;-87
2023/08/17 07:25:25;;;;;;;5.63;3.00;;;20.60;99.90;;;;;;4960923;29;20465;-88
2023/08/17 07:27:54;;;;;;;3.67;2.93;;;;;;;;;;4961142;28;20890;-88
2023/08/17 07:30:20;;;;;;;5.90;3.40;;;20.40;99.90;;;;;;4960492;29;20485;-89
2023/08/17 07:32:48;;;;;;;4.50;3.63;;;20.40;99.90;;;;;;4960428;29;20849;-89
2023/08/17 07:35:14;;;;;;;7.43;4.03;;;20.40;99.90;;;;;;4960633;29;20448;-88
2023/08/17 07:37:41;;;;;;;4.83;3.57;;;20.30;99.90;;;;;;4961790;28;20914;-88
2023/08/17 07:40:09;;;;;;;6.60;4.07;;;20.30;99.90;;;;;;4960386;29;20454;-88
2023/08/17 07:42:37;;;;;;;8.30;4.13;;;20.30;99.90;;;;;;4959300;29;20446;-88
2023/08/17 07:45:07;;;;;;;8.00;3.70;;;20.50;99.90;;;;;;4958526;29;20490;-88
2023/08/17 07:47:35;;;;;;;4.20;3.63;;;20.40;99.90;;;;;;4959940;28;20950;-88
2023/08/17 07:50:02;;;;;;;4.13;3.70;;;20.30;99.90;;;;;;4959362;29;20546;-88
2023/08/17 07:52:29;;;;;;;7.17;3.90;;;20.20;99.90;;;;;;4959272;29;20493;-89
2023/08/17 07:54:56;;;;;;;4.77;3.87;;;21.20;99.90;;;;;;4959728;29;20827;-89
2023/08/17 07:57:23;;;;;;;6.90;3.50;;;20.60;99.90;;;;;;4961487;28;20559;-88
2023/08/17 07:59:51;;;;;;;7.23;5.47;;;20.60;99.90;;;;;;4967320;29;20822;-88
2023/08/17 08:02:19;;;;;;;6.33;3.80;;;20.70;54.90;;;;;;4980826;28;20453;-89
2023/08/17 08:04:46;;;;;;;5.80;3.87;;;20.60;94.90;;;;;;4970625;28;20466;-89
2023/08/17 08:07:13;;;;;;;4.37;3.67;;;21.00;99.90;;;;;;4966786;28;20507;-89
2023/08/17 08:09:39;;;;;;;12.63;7.53;;;21.10;80.10;;;;;;4964959;29;20450;-89
2023/08/17 08:12:07;;;;;;;4.73;4.30;;;21.10;64.60;;;;;;4966501;29;20473;-88
2023/08/17 08:14:34;;;;;;;8.10;6.57;;;21.20;43.80;;;;;;4971868;28;20470;-89
2023/08/17 08:17:01;;;;;;;5.30;3.80;;;21.40;29.80;;;;;;4978976;28;20467;-89
2023/08/17 08:19:29;;;;;;;6.33;3.43;;;21.50;15.70;;;;;;4979318;28;20497;-89
2023/08/17 08:21:56;;;;;;;4.53;3.90;;;21.80;54.70;;;;;;4974985;28;20462;-90
2023/08/17 08:24:23;;;;;;;3.90;3.50;;;21.60;1.00;;;;;;4981104;28;20437;-88
2023/08/17 08:26:52;;;;;;;3.70;3.40;;;;;;;;;;4980906;28;20442;-89
2023/08/17 08:29:19;;;;;;;4.97;4.10;;;21.80;1.00;;;;;;4979591;28;20471;-89
2023/08/17 08:31:46;;;;;;;3.93;3.50;;;22.00;7.50;;;;;;4975479;29;20510;-88
2023/08/17 08:34:13;;;;;;;4.37;3.73;;;21.90;1.00;;;;;;4974976;29;20516;-88
2023/08/17 08:36:41;;;;;;;8.17;4.30;;;21.90;1.00;;;;;;4972540;28;20489;-88
2023/08/17 08:39:08;;;;;;;4.70;4.03;;;21.80;6.30;;;;;;4961384;29;20460;-88
2023/08/17 08:41:37;;;;;;;5.43;3.87;;;22.10;20.00;;;;;;4959540;29;20446;-88
2023/08/17 08:44:05;;;;;;;4.80;4.17;;;21.80;11.10;;;;;;4958965;29;20449;-88
2023/08/17 08:46:34;;;;;;;5.70;4.30;;;21.80;14.80;;;;;;4942177;29;20462;-88
2023/08/17 08:49:04;;;;;;;7.97;4.17;;;21.80;26.00;;;;;;4959192;29;20517;-89
2023/08/17 08:51:34;;;;;;;4.70;4.30;;;21.80;51.30;;;;;;4973198;28;20454;-89
2023/08/17 08:54:04;;;;;;;5.13;4.47;;;22.10;92.50;;;;;;4978757;28;20466;-90
2023/08/17 08:56:33;;;;;;;4.70;4.10;;;21.80;90.70;;;;;;4979653;28;20529;-89
2023/08/17 08:59:03;;;;;;;9.30;6.87;;;21.70;99.90;;;;;;4960239;29;20458;-89
2023/08/17 09:01:32;;;;;;;6.47;5.87;;;21.70;99.90;;;;;;4959266;29;20445;-89
2023/08/17 09:04:00;;;;;;;8.90;5.17;;;21.90;99.90;;;;;;4964941;29;20457;-89
2023/08/17 09:06:28;;;;;;;6.57;5.03;;;21.60;99.90;;;;;;4980086;28;20464;-89
2023/08/17 09:08:55;;;;;;;4.30;4.00;;;;;;;;;;4962640;29;20466;-88
2023/08/17 09:11:23;;;;;;;5.13;4.73;;;21.60;99.90;;;;;;4957720;29;20446;-88
2023/08/17 09:13:50;;;;;;;5.70;5.30;;;21.60;99.90;;;;;;4961505;29;20569;-88
2023/08/17 09:16:17;;;;;;;10.73;6.90;;;22.20;99.90;;;;;;4965286;28;20557;-88
2023/08/17 09:18:45;;;;;;;8.80;5.63;;;21.50;99.90;;;;;;4959833;29;20510;-88
2023/08/17 09:21:21;;;;;;;5.10;4.70;;;21.50;99.90;;;;;;4957379;29;20450;-89
2023/08/17 09:23:53;;;;;;;5.53;5.03;;;21.30;99.90;;;;;;4957890;29;20783;-88
2023/08/17 09:26:21;;;;;;;5.40;4.90;;;21.60;99.90;;;;;;4957857;28;20995;-88
2023/08/17 09:28:50;;;;;;;9.07;5.80;;;22.30;99.90;;;;;;4957610;29;20470;-88
2023/08/17 09:31:17;;;;;;;7.80;5.10;;;;;;;;;;4957968;29;20450;-88
2023/08/17 09:33:44;;;;;;;5.60;5.10;;;22.00;99.90;;;;;;4957584;29;20516;-88
2023/08/17 09:36:13;;;;;;;5.60;5.10;;;22.20;1.00;;;;;;4959014;28;20537;-88
2023/08/17 09:38:40;;;;;;;5.57;4.30;;;22.60;99.90;;;;;;4970284;29;20456;-88
2023/08/17 09:41:06;;;;;;;5.00;4.60;;;22.40;99.90;;;;;;4958840;29;20532;-88
2023/08/17 09:43:34;;;;;;;4.83;4.53;;;22.40;99.90;;;;;;4958313;29;20586;-88
2023/08/17 09:46:03;;;;;;;7.13;4.63;;;22.50;89.60;;;;;;4957493;28;20470;-88
2023/08/17 09:48:30;;;;;;;5.63;4.80;;;22.50;99.90;;;;;;4958017;29;20493;-88
2023/08/17 09:50:59;;;;;;;3.90;3.60;;;22.60;99.90;;;;;;4960348;29;20533;-88
2023/08/17 09:53:26;;;;;;;5.10;4.23;;;22.80;99.90;;;;;;4959139;29;20497;-88
2023/08/17 09:55:55;;;;;;;4.90;4.30;;;22.90;99.90;;;;;;4958066;29;20819;-88
2023/08/17 09:58:22;;;;;;;5.20;4.33;;;22.90;44.30;;;;;;4959102;28;20523;-88
2023/08/17 10:00:51;;;;;;;3.80;3.40;;;23.10;99.90;;;;;;4958669;29;20989;-88
2023/08/17 10:03:20;;;;;;;7.60;4.97;;;23.10;22.60;;;;;;4958678;29;20477;-88
2023/08/17 10:05:52;;;;;;;7.00;5.10;;;23.30;55.60;;;;;;4959410;29;20828;-88
2023/08/17 10:08:21;;;;;;;5.27;4.20;;;23.00;92.40;;;;;;4956967;28;20498;-88
2023/08/17 10:10:48;;;;;;;6.53;4.93;;;23.00;99.90;;;;;;4958370;29;20879;-88
2023/08/17 10:13:26;;;;;;;4.53;4.13;;;23.00;32.00;;;;;;4959650;29;20544;-88
2023/08/17 10:16:00;;;;;;;4.90;4.50;;;22.70;62.00;;;;;;4960478;29;20485;-89
2023/08/17 10:18:34;;;;;;;9.03;4.50;;;23.10;99.90;;;;;;4957590;29;20839;-88
2023/08/17 10:21:04;;;;;;;6.00;4.83;;;22.40;99.90;;;;;;4959209;29;20864;-89
2023/08/17 10:23:32;;;;;;;4.80;4.40;;;22.40;99.90;;;;;;4960873;29;20534;-89
2023/08/17 10:26:01;;;;;;;6.10;5.50;;;22.30;99.90;;;;;;4958163;28;20549;-89
2023/08/17 10:28:28;;;;;;;5.73;4.50;;;23.10;99.90;;;;;;4959667;28;20450;-89
2023/08/17 10:30:55;;;;;;;7.80;4.27;;;;;;;;;;4961623;29;20521;-89
2023/08/17 10:33:23;;;;;;;5.27;4.77;;;22.40;99.90;;;;;;4961252;29;20510;-89
2023/08/17 10:35:51;;;;;;;7.20;5.00;;;22.70;99.90;;;;;;4961232;29;20545;-89
2023/08/17 10:38:19;;;;;;;6.53;4.43;;;22.90;99.90;;;;;;4970956;28;20569;-89
2023/08/17 10:40:45;;;;;;;5.33;4.70;;;22.80;99.90;;;;;;4981880;29;20477;-89
2023/08/17 10:43:12;;;;;;;4.97;4.57;;;23.00;99.90;;;;;;4979961;28;20458;-89
2023/08/17 10:45:39;;;;;;;6.73;6.23;;;23.20;99.90;;;;;;4980996;29;20450;-88
2023/08/17 10:48:33;;;;;;;7.07;5.37;;;23.30;92.20;;;;;;4982037;28;20530;-89
2023/08/17 10:51:03;;;;;;;6.20;5.70;;;23.40;99.90;;;;;;4949420;28;20459;-90
2023/08/17 10:53:38;;;;;;;8.10;5.80;;;23.40;94.20;;;;;;4982772;28;20478;-90
2023/08/17 10:56:09;;;;;;;5.90;5.40;;;23.90;1.00;;;;;;4982136;28;20441;-87
2023/08/17 10:59:06;;;;;;;5.60;5.10;;;23.60;99.90;;;;;;5000325;23;20496;-88
2023/08/17 11:01:42;;;;;;;7.57;6.80;;;;;;;;;;4957290;29;20536;-88
2023/08/17 11:04:33;;;;;;;9.33;8.37;;;;;;;;;;4979405;28;20462;-88
2023/08/17 11:07:25;;;;;;;7.10;6.33;;;23.70;99.90;;;;;;4982399;28;20457;-89
2023/08/17 11:10:31;;;;;;;6.17;5.57;;;23.80;99.90;;;;;;4974494;28;20426;-88
2023/08/17 11:13:01;;;;;;;7.67;4.73;;;;;;;;;;4963662;29;20474;-89
2023/08/17 11:15:53;;;;;;;6.23;5.00;;;23.80;99.90;;;;;;4961110;29;20478;-89
2023/08/17 11:18:31;;;;;;;5.93;5.40;;;;;;;;;;4968966;28;20509;-89
2023/08/17 11:21:07;;;;;;;5.90;5.30;;;;;;;;;;4981610;28;20506;-90
2023/08/17 11:23:39;;;;;;;5.40;5.00;;;23.90;90.00;;;;;;4972593;29;20464;-89
2023/08/17 11:26:08;;;;;;;6.30;4.80;;;23.80;99.90;;;;;;4960128;29;21008;-89
2023/08/17 11:34:35;;;;;;;6.47;5.43;;;;;;;;;;4902061;29;20461;-88
2023/08/17 11:37:35;;;;;;;5.40;5.00;;;23.90;99.90;;;;;;4885559;29;20479;-89
2023/08/17 11:40:15;;;;;;;7.10;6.50;;;;;;;;;;4955829;29;20541;-89
2023/08/17 11:42:54;;;;;;;8.10;7.30;;;;;;;;;;4962229;29;20542;-88
2023/08/17 11:45:35;;;;;;;5.97;5.47;;;24.10;99.90;;;;;;4962297;29;20459;-88
2023/08/17 11:48:16;;;;;;;6.43;5.93;;;24.00;99.90;;;;;;4962673;28;20563;-88
2023/08/17 11:50:50;;;;;;;6.90;6.30;;;;;;;;;;4962543;29;20451;-88
2023/08/17 11:53:19;;;;;;;5.43;5.03;;;;;;;;;;4963925;29;20450;-89
2023/08/17 11:56:07;;;;;;;8.00;6.80;;;24.00;99.90;;;;;;4970989;28;20466;-89
2023/08/17 11:59:01;;;;;;;5.90;5.47;;;24.00;99.90;;;;;;4980513;28;20473;-89
2023/08/17 12:05:10;;;;;;;6.30;5.80;;;24.40;1.00;;;;;;4975019;28;20459;-88
2023/08/17 12:07:47;;;;;;;6.43;5.83;;;;;;;;;;4977257;28;20505;-88
2023/08/17 12:10:37;;;;;;;7.00;6.40;;;24.50;99.90;;;;;;4968347;29;20498;-88
2023/08/17 12:14:03;;;;;;;7.10;6.50;;;24.60;99.90;;;;;;4962624;29;20525;-89
2023/08/17 12:16:44;;;;;;;6.03;5.53;;;;;;;;;;4966137;28;20474;-89
2023/08/17 12:19:17;;;;;;;6.03;5.43;;;24.90;1.00;;;;;;4966554;29;20919;-89
2023/08/17 12:22:06;;;;;;;6.97;5.93;;;;;;;;;;4965162;29;20461;-89
2023/08/17 12:28:06;;;;;;;6.00;5.50;;;24.90;99.90;;;;;;4967629;28;20458;-89
2023/08/17 12:30:49;;;;;;;6.83;6.33;;;;;;;;;;4969154;29;20851;-88
2023/08/17 12:33:25;;;;;;;8.67;6.87;;;;;;;;;;4968326;29;20466;-89
2023/08/17 12:36:40;;;;;;;8.23;7.27;;;25.00;55.70;;;;;;4970409;29;20458;-89
2023/08/17 12:42:53;;;;;;;6.77;6.13;;;25.10;99.90;;;;;;4960059;29;20422;-88
2023/08/17 12:45:32;;;;;;;7.30;6.70;;;25.20;99.90;;;;;;4979749;28;20432;-89
2023/08/17 12:48:37;;;;;;;9.87;7.63;;;25.30;99.90;;;;;;4973027;28;20900;-89
2023/08/17 12:54:53;;;;;;;6.83;6.20;;;;;;;;;;4849587;29;20479;-89
2023/08/17 12:57:56;;;;;;;6.63;6.13;;;25.90;99.90;;;;;;4861429;29;20906;-90
2023/08/17 13:00:58;;;;;;;7.10;6.40;;;26.00;27.00;;;;;;4965350;29;20486;-89
2023/08/17 13:07:17;;;;;;;10.13;6.90;;;26.10;99.90;;;;;;4906457;29;20863;-89
2023/08/17 13:10:15;;;;;;;6.77;6.20;;;26.00;73.90;;;;;;4935318;29;20464;-89
2023/08/17 13:12:54;;;;;;;8.03;7.23;;;;;;;;;;4969650;29;20449;-89
2023/08/17 13:18:18;;;;;;;6.90;6.20;;;;;;;;;;4961133;28;20475;-89
2023/08/17 13:24:02;;;;;;;;;;;;;;;;;;;;;
2023/08/17 13:27:00;;;;;;;7.27;6.57;;;26.10;1.00;;;;;;4980020;28;20406;-89
2023/08/17 13:29:58;;;;;;;6.73;6.17;;;26.10;36.70;;;;;;4976108;28;20470;-89
2023/08/17 13:35:32;;;;;;;7.20;6.70;;;;;;;;;;4970031;29;20474;-89
2023/08/17 13:38:17;;;;;;;7.40;6.70;;;;;;;;;;4973025;28;20493;-89
2023/08/17 13:50:12;;;;;;;8.93;8.23;;;;;;;;;;4967626;29;20462;-89
2023/08/17 13:52:47;;;;;;;7.50;6.80;;;;;;;;;;4966060;29;20454;-89
2023/08/17 13:55:28;;;;;;;7.30;6.70;;;;;;;;;;4964628;29;20540;-89
2023/08/17 13:58:12;;;;;;;6.80;6.30;;;;;;;;;;4963396;28;20493;-89
2023/08/17 14:01:03;;;;;;;9.60;7.20;;;26.00;99.90;;;;;;4962053;29;20470;-89
2023/08/17 14:04:08;;;;;;;;;;;;;;;;;;;;;
2023/08/17 14:07:06;;;;;;;6.83;6.37;;;;;;;;;;4975157;28;20409;-90
2023/08/17 14:10:00;;;;;;;8.03;6.93;;;25.90;99.90;;;;;;4982151;29;20449;-89
2023/08/17 14:19:08;;;;;;;6.60;6.00;;;26.20;99.90;;;;;;4959150;29;20446;-89
2023/08/17 14:22:00;;;;;;;11.97;9.10;;;26.20;99.90;;;;;;4967390;29;20469;-89
2023/08/17 14:27:46;;;;;;;7.60;6.80;;;;;;;;;;4877901;29;20993;-89
2023/08/17 14:30:15;;;;;;;8.83;6.80;;;;;;;;;;4905402;29;20888;-88
2023/08/17 14:32:53;;;;;;;6.17;5.60;;;;;;;;;;4948997;29;20458;-88
2023/08/17 14:36:02;;;;;;;9.93;9.07;;;26.10;99.90;;;;;;4966154;29;20883;-87
2023/08/17 14:39:05;;;;;;;9.27;6.20;;;26.10;99.90;;;;;;4964119;28;20501;-89
2023/08/17 14:44:54;;;;;;;6.20;5.60;;;;;;;;;;4953138;29;20453;-89
2023/08/17 14:47:28;;;;;;;9.47;5.90;;;26.20;99.90;;;;;;4963053;28;20568;-89
2023/08/17 14:50:16;;;;;;;5.57;5.17;;;26.30;99.90;;;;;;4966033;29;20895;-90
2023/08/17 14:55:45;;;;;;;6.07;5.50;;;26.40;11.70;;;;;;4976109;29;20478;-88
2023/08/17 14:58:51;;;;;;;6.00;5.50;;;26.40;68.30;;;;;;4970005;28;20494;-89
2023/08/17 15:04:58;;;;;;;5.57;5.17;;;26.50;99.90;;;;;;4969159;29;20496;-89
2023/08/17 15:07:30;;;;;;;6.87;6.27;;;;;;;;;;4962694;28;20478;-90
2023/08/17 15:10:08;;;;;;;6.13;5.63;;;26.50;1.00;;;;;;4962358;29;20970;-89
2023/08/17 15:15:31;;;;;;;6.57;6.03;;;;;;;;;;4944233;29;20486;-90
2023/08/17 15:18:21;;;;;;;6.60;6.10;;;25.90;99.90;;;;;;4966457;28;20486;-89
2023/08/17 15:21:04;;;;;;;7.13;6.43;;;26.10;99.90;;;;;;4963195;29;20442;-89
2023/08/17 15:23:53;;;;;;;7.03;6.33;;;26.30;99.90;;;;;;4963572;29;20433;-89
2023/08/17 15:26:53;;;;;;;6.73;6.20;;;26.30;99.90;;;;;;4962592;29;20539;-89
2023/08/17 15:32:36;;;;;;;8.07;5.00;;;;;;;;;;4954430;29;20462;-89
2023/08/17 15:35:13;;;;;;;5.80;5.40;;;;;;;;;;4963760;29;20482;-88
2023/08/17 15:37:40;;;;;;;5.90;5.40;;;;;;;;;;4975986;28;20484;-89
2023/08/17 15:40:08;;;;;;;6.87;6.30;;;26.10;1.00;;;;;;4978860;28;20442;-92
2023/08/17 16:04:49;;;;;;;5.80;5.40;;;25.60;99.90;;;;;;3266557;26;20475;-89
2023/08/17 16:07:33;;;;;;;6.03;5.47;;;25.50;99.90;;;;;;4875669;29;20524;-89
2023/08/17 16:55:33;;;;;;;8.17;7.40;;;25.00;99.90;;;;;;4872066;29;20493;-87
2023/08/17 18:03:59;;;;;;;9.87;8.97;;;24.60;99.90;;;;;;4726158;30;20446;-90
2023/08/17 18:06:53;;;;;;;8.60;7.80;;;24.50;1.00;;;;;;4786992;30;20494;-89
2023/08/17 18:09:24;;;;;;;9.20;8.40;;;;;;;;;;4864326;29;20460;-89
2023/08/17 18:12:05;;;;;;;9.60;8.70;;;;;;;;;;4927017;29;20452;-89
2023/08/17 18:17:55;;;;;;;8.70;7.90;;;24.40;99.90;;;;;;4953498;28;20584;-89
2023/08/17 18:21:14;;;;;;;;;;;;;;;;;;;;;
2023/08/17 20:50:00;;;;;;;;;;;;;;;;;;;;;
2023/08/17 20:56:40;;;;;;;8.23;4.00;;;22.50;99.90;;;;;;4832595;29;20433;-90
2023/08/17 21:02:40;;;;;;;6.00;4.80;;;22.60;1.00;;;;;;4830952;29;20447;-90
2023/08/17 21:05:45;;;;;;;5.60;4.50;;;22.60;1.00;;;;;;4872320;29;20452;-90
2023/08/17 21:08:21;;;;;;;4.40;4.00;;;;;;;;;;4889136;29;20457;-89
2023/08/17 21:11:08;;;;;;;5.80;4.20;;;22.40;99.90;;;;;;4889495;29;20546;-89
2023/08/17 21:13:50;;;;;;;6.53;5.93;;;22.30;1.00;;;;;;4948637;29;20470;-90
2023/08/17 21:16:31;;;;;;;6.90;5.00;;;22.10;99.90;;;;;;4948003;29;20460;-90
2023/08/17 21:19:10;;;;;;;5.40;4.90;;;;;;;;;;4947636;29;20502;-89
2023/08/17 21:21:52;;;;;;;5.37;4.77;;;;;;;;;;4946645;29;20562;-90
2023/08/17 21:24:22;;;;;;;5.77;4.90;;;;;;;;;;4944140;29;20506;-90
2023/08/17 21:27:01;;;;;;;4.50;4.10;;;21.50;1.00;;;;;;4945088;29;20436;-89
2023/08/17 21:29:48;;;;;;;8.10;4.87;;;21.50;99.90;;;;;;4953695;29;20434;-90
2023/08/17 21:32:25;;;;;;;7.73;4.80;;;21.40;99.90;;;;;;4958510;29;20447;-90
2023/08/17 21:35:12;;;;;;;5.17;4.43;;;21.40;99.90;;;;;;4953521;29;20505;-91